sensor_id;sensor_type;location;lat;lon;timestamp;pressure;altitude;pressure_sealevel;temperature;humidity
13314;BME280;6725;48.112;11.604;2022-09-28T00:02:04;92838.41;;;9.19;100.00
13314;BME280;6725;48.112;11.604;2022-09-28T00:04:30;92828.25;;;9.20;100.00
13314;BME280;6725;48.112;11.604;2022-09-28T00:06:57;92830.84;;;9.14;100.00
13314;BME280;6725;48.112;11.604;2022-09-28T00:09:22;92820.56;;;9.18;100.00
13314;BME280;6725;48.112;11.604;2022-09-28T00:11:48;92824.81;;;9.19;100.00
13314;BME280;6725;48.112;11.604;2022-09-28T00:14:13;92810.44;;;9.19;100.00
13314;BME280;6725;48.112;11.604;2022-09-28T00:16:41;92814.19;;;9.21;100.00
13314;BME280;6725;48.112;11.604;2022-09-28T00:19:08;92809.66;;;9.18;100.00
13314;BME280;6725;48.112;11.604;2022-09-28T00:21:36;92794.38;;;9.21;100.00
13314;BME280;6725;48.112;11.604;2022-09-28T00:24:03;92796.19;;;9.24;100.00
13314;BME280;6725;48.112;11.604;2022-09-28T00:29:30;92787.88;;;9.18;100.00
13314;BME280;6725;48.112;11.604;2022-09-28T00:31:58;92781.53;;;9.21;100.00
13314;BME280;6725;48.112;11.604;2022-09-28T00:34:30;92777.13;;;9.24;100.00
13314;BME280;6725;48.112;11.604;2022-09-28T00:36:56;92775.94;;;9.25;100.00
13314;BME280;6725;48.112;11.604;2022-09-28T00:39:22;92771.41;;;9.22;100.00
13314;BME280;6725;48.112;11.604;2022-09-28T00:41:47;92771.22;;;9.25;100.00
13314;BME280;6725;48.112;11.604;2022-09-28T00:44:41;92760.06;;;9.23;100.00
13314;BME280;6725;48.112;11.604;2022-09-28T00:47:35;92769.72;;;9.24;100.00
13314;BME280;6725;48.112;11.604;2022-09-28T00:50:24;92760.63;;;9.27;100.00
13314;BME280;6725;48.112;11.604;2022-09-28T00:57:59;92778.16;;;9.26;100.00
13314;BME280;6725;48.112;11.604;2022-09-28T01:00:27;92788.47;;;9.22;100.00
13314;BME280;6725;48.112;11.604;2022-09-28T01:02:52;92790.47;;;9.22;100.00
13314;BME280;6725;48.112;11.604;2022-09-28T01:05:19;92790.75;;;9.24;100.00
13314;BME280;6725;48.112;11.604;2022-09-28T01:07:45;92791.38;;;9.19;100.00
13314;BME280;6725;48.112;11.604;2022-09-28T01:10:11;92783.97;;;9.19;100.00
13314;BME280;6725;48.112;11.604;2022-09-28T01:12:37;92779.44;;;9.16;100.00
13314;BME280;6725;48.112;11.604;2022-09-28T01:15:03;92777.91;;;9.15;100.00
13314;BME280;6725;48.112;11.604;2022-09-28T01:17:37;92789.72;;;9.12;100.00
13314;BME280;6725;48.112;11.604;2022-09-28T01:28:00;92786.56;;;9.14;100.00
13314;BME280;6725;48.112;11.604;2022-09-28T01:30:32;92786.06;;;9.15;100.00
13314;BME280;6725;48.112;11.604;2022-09-28T01:33:05;92789.41;;;9.10;100.00
13314;BME280;6725;48.112;11.604;2022-09-28T01:38:09;92790.63;;;9.09;100.00
13314;BME280;6725;48.112;11.604;2022-09-28T01:40:37;92784.59;;;9.05;100.00
13314;BME280;6725;48.112;11.604;2022-09-28T01:43:06;92777.63;;;9.04;100.00
13314;BME280;6725;48.112;11.604;2022-09-28T01:46:00;92777.63;;;9.04;100.00
13314;BME280;6725;48.112;11.604;2022-09-28T01:48:40;92768.84;;;9.09;100.00
13314;BME280;6725;48.112;11.604;2022-09-28T01:51:15;92767.94;;;9.12;100.00
13314;BME280;6725;48.112;11.604;2022-09-28T01:53:47;92768.53;;;9.16;100.00
13314;BME280;6725;48.112;11.604;2022-09-28T01:56:21;92768.38;;;9.20;100.00
13314;BME280;6725;48.112;11.604;2022-09-28T01:59:06;92766.69;;;9.22;100.00
13314;BME280;6725;48.112;11.604;2022-09-28T02:01:41;92768.50;;;9.25;100.00
13314;BME280;6725;48.112;11.604;2022-09-28T02:04:15;92755.19;;;9.27;100.00
13314;BME280;6725;48.112;11.604;2022-09-28T02:06:48;92741.59;;;9.27;100.00
13314;BME280;6725;48.112;11.604;2022-09-28T02:09:21;92742.91;;;9.32;100.00
13314;BME280;6725;48.112;11.604;2022-09-28T02:11:53;92743.97;;;9.34;100.00
13314;BME280;6725;48.112;11.604;2022-09-28T02:14:21;92741.25;;;9.34;100.00
13314;BME280;6725;48.112;11.604;2022-09-28T02:16:50;92741.84;;;9.38;100.00
13314;BME280;6725;48.112;11.604;2022-09-28T02:19:18;92734.72;;;9.41;100.00
13314;BME280;6725;48.112;11.604;2022-09-28T02:24:23;92728.50;;;9.40;100.00
13314;BME280;6725;48.112;11.604;2022-09-28T02:26:52;92734.41;;;9.39;100.00
13314;BME280;6725;48.112;11.604;2022-09-28T02:29:20;92726.09;;;9.42;100.00
13314;BME280;6725;48.112;11.604;2022-09-28T02:31:45;92730.19;;;9.38;100.00
13314;BME280;6725;48.112;11.604;2022-09-28T02:34:10;92731.22;;;9.40;100.00
13314;BME280;6725;48.112;11.604;2022-09-28T02:36:36;92731.53;;;9.42;100.00
13314;BME280;6725;48.112;11.604;2022-09-28T02:39:01;92730.03;;;9.41;100.00
13314;BME280;6725;48.112;11.604;2022-09-28T02:46:58;92729.47;;;9.28;100.00
13314;BME280;6725;48.112;11.604;2022-09-28T03:01:19;92722.34;;;8.80;100.00
13314;BME280;6725;48.112;11.604;2022-09-28T03:09:36;92693.25;;;8.63;100.00
13314;BME280;6725;48.112;11.604;2022-09-28T03:12:07;92686.41;;;8.67;100.00
13314;BME280;6725;48.112;11.604;2022-09-28T03:14:34;92675.97;;;8.66;100.00
13314;BME280;6725;48.112;11.604;2022-09-28T03:16:59;92668.44;;;8.61;100.00
13314;BME280;6725;48.112;11.604;2022-09-28T03:19:28;92676.47;;;8.55;100.00
13314;BME280;6725;48.112;11.604;2022-09-28T03:21:54;92664.09;;;8.54;100.00
13314;BME280;6725;48.112;11.604;2022-09-28T03:24:19;92672.09;;;8.49;100.00
13314;BME280;6725;48.112;11.604;2022-09-28T03:26:45;92675.41;;;8.44;100.00
13314;BME280;6725;48.112;11.604;2022-09-28T03:29:10;92667.72;;;8.42;100.00
13314;BME280;6725;48.112;11.604;2022-09-28T03:31:36;92657.78;;;8.39;100.00
13314;BME280;6725;48.112;11.604;2022-09-28T03:34:02;92664.72;;;8.40;100.00
13314;BME280;6725;48.112;11.604;2022-09-28T03:36:27;92652.94;;;8.34;100.00
13314;BME280;6725;48.112;11.604;2022-09-28T03:38:52;92656.88;;;8.33;100.00
13314;BME280;6725;48.112;11.604;2022-09-28T03:41:20;92644.19;;;8.30;100.00
13314;BME280;6725;48.112;11.604;2022-09-28T03:43:46;92641.19;;;8.28;100.00
13314;BME280;6725;48.112;11.604;2022-09-28T03:46:11;92637.84;;;8.33;100.00
13314;BME280;6725;48.112;11.604;2022-09-28T03:48:37;92633.31;;;8.30;100.00
13314;BME280;6725;48.112;11.604;2022-09-28T03:51:05;92627.09;;;8.39;100.00
13314;BME280;6725;48.112;11.604;2022-09-28T03:53:33;92620.16;;;8.38;100.00
13314;BME280;6725;48.112;11.604;2022-09-28T03:56:04;92622.44;;;8.30;100.00
13314;BME280;6725;48.112;11.604;2022-09-28T03:58:30;92616.09;;;8.33;100.00
13314;BME280;6725;48.112;11.604;2022-09-28T04:01:07;92620.63;;;8.27;100.00
13314;BME280;6725;48.112;11.604;2022-09-28T04:03:33;92615.19;;;8.27;100.00
13314;BME280;6725;48.112;11.604;2022-09-28T04:05:59;92607.47;;;8.26;100.00
13314;BME280;6725;48.112;11.604;2022-09-28T04:08:25;92608.69;;;8.25;100.00
13314;BME280;6725;48.112;11.604;2022-09-28T04:10:50;92610.06;;;8.29;100.00
13314;BME280;6725;48.112;11.604;2022-09-28T04:13:15;92590.25;;;8.29;100.00
13314;BME280;6725;48.112;11.604;2022-09-28T04:15:42;92591.47;;;8.28;100.00
13314;BME280;6725;48.112;11.604;2022-09-28T04:18:09;92589.81;;;8.30;100.00
13314;BME280;6725;48.112;11.604;2022-09-28T04:20:35;92590.41;;;8.34;100.00
13314;BME280;6725;48.112;11.604;2022-09-28T04:23:00;92579.22;;;8.41;100.00
13314;BME280;6725;48.112;11.604;2022-09-28T04:25:26;92578.78;;;8.34;100.00
13314;BME280;6725;48.112;11.604;2022-09-28T04:27:51;92584.50;;;8.36;100.00
13314;BME280;6725;48.112;11.604;2022-09-28T04:30:35;92580.72;;;8.42;100.00
13314;BME280;6725;48.112;11.604;2022-09-28T04:33:00;92586.16;;;8.42;100.00
13314;BME280;6725;48.112;11.604;2022-09-28T04:35:26;92586.63;;;8.41;100.00
13314;BME280;6725;48.112;11.604;2022-09-28T04:37:51;92581.78;;;8.45;100.00
13314;BME280;6725;48.112;11.604;2022-09-28T04:40:17;92584.66;;;8.41;100.00
13314;BME280;6725;48.112;11.604;2022-09-28T04:42:42;92577.06;;;8.45;100.00
13314;BME280;6725;48.112;11.604;2022-09-28T04:45:08;92576.69;;;8.29;100.00
13314;BME280;6725;48.112;11.604;2022-09-28T04:47:33;92583.16;;;8.31;100.00
13314;BME280;6725;48.112;11.604;2022-09-28T04:49:59;92573.63;;;8.36;100.00
13314;BME280;6725;48.112;11.604;2022-09-28T04:52:24;92574.25;;;8.31;100.00
13314;BME280;6725;48.112;11.604;2022-09-28T04:54:50;92571.09;;;8.32;100.00
13314;BME280;6725;48.112;11.604;2022-09-28T04:57:16;92566.25;;;8.36;100.00
13314;BME280;6725;48.112;11.604;2022-09-28T04:59:41;92571.38;;;8.34;100.00
13314;BME280;6725;48.112;11.604;2022-09-28T05:02:06;92576.53;;;8.32;100.00
13314;BME280;6725;48.112;11.604;2022-09-28T05:04:32;92577.13;;;8.36;100.00
13314;BME280;6725;48.112;11.604;2022-09-28T05:06:57;92584.38;;;8.30;100.00
13314;BME280;6725;48.112;11.604;2022-09-28T05:09:23;92582.84;;;8.38;100.00
13314;BME280;6725;48.112;11.604;2022-09-28T05:11:49;92587.81;;;8.40;100.00
13314;BME280;6725;48.112;11.604;2022-09-28T05:14:14;92590.38;;;8.43;100.00
13314;BME280;6725;48.112;11.604;2022-09-28T05:16:41;92586.75;;;8.46;100.00
13314;BME280;6725;48.112;11.604;2022-09-28T05:19:06;92576.34;;;8.45;100.00
13314;BME280;6725;48.112;11.604;2022-09-28T05:21:31;92579.78;;;8.45;100.00
13314;BME280;6725;48.112;11.604;2022-09-28T05:23:57;92583.72;;;8.44;100.00
13314;BME280;6725;48.112;11.604;2022-09-28T05:26:23;92562.56;;;8.48;100.00
13314;BME280;6725;48.112;11.604;2022-09-28T05:28:48;92563.47;;;8.45;100.00
13314;BME280;6725;48.112;11.604;2022-09-28T05:31:14;92562.16;;;8.41;100.00
13314;BME280;6725;48.112;11.604;2022-09-28T05:33:40;92549.94;;;8.36;100.00
13314;BME280;6725;48.112;11.604;2022-09-28T05:36:08;92538.47;;;8.32;100.00
13314;BME280;6725;48.112;11.604;2022-09-28T05:38:37;92529.09;;;8.33;100.00
13314;BME280;6725;48.112;11.604;2022-09-28T05:41:02;92522.88;;;8.33;100.00
13314;BME280;6725;48.112;11.604;2022-09-28T05:43:28;92523.97;;;8.35;100.00
13314;BME280;6725;48.112;11.604;2022-09-28T05:45:53;92501.59;;;8.31;100.00
13314;BME280;6725;48.112;11.604;2022-09-28T05:48:19;92496.47;;;8.33;100.00
13314;BME280;6725;48.112;11.604;2022-09-28T05:50:49;92500.41;;;8.32;100.00
13314;BME280;6725;48.112;11.604;2022-09-28T05:53:14;92493.13;;;8.38;100.00
13314;BME280;6725;48.112;11.604;2022-09-28T05:55:40;92501.56;;;8.40;100.00
13314;BME280;6725;48.112;11.604;2022-09-28T05:58:05;92490.06;;;8.45;100.00
13314;BME280;6725;48.112;11.604;2022-09-28T06:00:32;92482.38;;;8.44;100.00
13314;BME280;6725;48.112;11.604;2022-09-28T06:03:00;92465.31;;;8.43;100.00
13314;BME280;6725;48.112;11.604;2022-09-28T06:05:27;92465.91;;;8.47;100.00
13314;BME280;6725;48.112;11.604;2022-09-28T06:07:56;92457.28;;;8.49;100.00
13314;BME280;6725;48.112;11.604;2022-09-28T06:10:22;92441.75;;;8.40;100.00
13314;BME280;6725;48.112;11.604;2022-09-28T06:12:57;92430.88;;;8.40;100.00
13314;BME280;6725;48.112;11.604;2022-09-28T06:15:25;92418.50;;;8.39;100.00
13314;BME280;6725;48.112;11.604;2022-09-28T06:17:55;92407.06;;;8.35;100.00
13314;BME280;6725;48.112;11.604;2022-09-28T06:20:21;92411.56;;;8.38;100.00
13314;BME280;6725;48.112;11.604;2022-09-28T06:22:50;92399.63;;;8.36;100.00
13314;BME280;6725;48.112;11.604;2022-09-28T06:25:15;92379.69;;;8.39;100.00
13314;BME280;6725;48.112;11.604;2022-09-28T06:27:41;92391.03;;;8.37;100.00
13314;BME280;6725;48.112;11.604;2022-09-28T06:30:06;92379.03;;;8.44;100.00
13314;BME280;6725;48.112;11.604;2022-09-28T06:32:32;92372.56;;;8.41;100.00
13314;BME280;6725;48.112;11.604;2022-09-28T06:34:57;92373.91;;;8.46;100.00
13314;BME280;6725;48.112;11.604;2022-09-28T06:37:22;92361.22;;;8.43;100.00
13314;BME280;6725;48.112;11.604;2022-09-28T06:39:50;92361.91;;;8.52;100.00
13314;BME280;6725;48.112;11.604;2022-09-28T06:42:15;92348.63;;;8.54;100.00
13314;BME280;6725;48.112;11.604;2022-09-28T06:44:42;92355.38;;;8.59;100.00
13314;BME280;6725;48.112;11.604;2022-09-28T06:47:11;92355.22;;;8.62;100.00
13314;BME280;6725;48.112;11.604;2022-09-28T06:49:36;92358.38;;;8.61;100.00
13314;BME280;6725;48.112;11.604;2022-09-28T06:52:02;92346.41;;;8.67;100.00
13314;BME280;6725;48.112;11.604;2022-09-28T06:54:27;92349.22;;;8.73;100.00
13314;BME280;6725;48.112;11.604;2022-09-28T06:56:52;92350.25;;;8.75;100.00
13314;BME280;6725;48.112;11.604;2022-09-28T06:59:18;92351.59;;;8.80;100.00
13314;BME280;6725;48.112;11.604;2022-09-28T07:01:44;92348.69;;;8.83;100.00
13314;BME280;6725;48.112;11.604;2022-09-28T07:04:09;92348.03;;;8.88;100.00
13314;BME280;6725;48.112;11.604;2022-09-28T07:06:35;92342.13;;;8.90;100.00
13314;BME280;6725;48.112;11.604;2022-09-28T07:09:01;92348.34;;;8.90;100.00
13314;BME280;6725;48.112;11.604;2022-09-28T07:11:36;92348.34;;;8.90;100.00
13314;BME280;6725;48.112;11.604;2022-09-28T07:14:03;92343.16;;;8.92;100.00
13314;BME280;6725;48.112;11.604;2022-09-28T07:16:29;92353.22;;;9.01;100.00
13314;BME280;6725;48.112;11.604;2022-09-28T07:18:54;92351.94;;;9.11;100.00
13314;BME280;6725;48.112;11.604;2022-09-28T07:21:20;92347.22;;;9.11;100.00
13314;BME280;6725;48.112;11.604;2022-09-28T07:23:45;92348.06;;;9.17;100.00
13314;BME280;6725;48.112;11.604;2022-09-28T07:26:12;92350.78;;;9.17;100.00
13314;BME280;6725;48.112;11.604;2022-09-28T07:28:38;92360.75;;;9.20;100.00
13314;BME280;6725;48.112;11.604;2022-09-28T07:31:05;92365.84;;;9.27;100.00
13314;BME280;6725;48.112;11.604;2022-09-28T07:33:31;92364.69;;;9.34;100.00
13314;BME280;6725;48.112;11.604;2022-09-28T07:35:58;92363.13;;;9.27;100.00
13314;BME280;6725;48.112;11.604;2022-09-28T07:38:25;92369.75;;;9.26;100.00
13314;BME280;6725;48.112;11.604;2022-09-28T07:40:50;92374.28;;;9.29;100.00
13314;BME280;6725;48.112;11.604;2022-09-28T07:43:34;92375.78;;;9.45;100.00
13314;BME280;6725;48.112;11.604;2022-09-28T07:46:00;92377.28;;;9.46;100.00
13314;BME280;6725;48.112;11.604;2022-09-28T07:48:25;92376.53;;;9.45;100.00
13314;BME280;6725;48.112;11.604;2022-09-28T07:50:52;92386.69;;;9.45;100.00
13314;BME280;6725;48.112;11.604;2022-09-28T07:53:19;92384.16;;;9.56;100.00
13314;BME280;6725;48.112;11.604;2022-09-28T07:55:52;92386.41;;;9.57;100.00
13314;BME280;6725;48.112;11.604;2022-09-28T07:58:18;92393.16;;;9.62;100.00
13314;BME280;6725;48.112;11.604;2022-09-28T08:00:47;92394.19;;;9.64;100.00
13314;BME280;6725;48.112;11.604;2022-09-28T08:03:17;92400.47;;;9.70;100.00
13314;BME280;6725;48.112;11.604;2022-09-28T08:05:43;92401.78;;;9.75;100.00
13314;BME280;6725;48.112;11.604;2022-09-28T08:08:09;92389.50;;;9.79;100.00
13314;BME280;6725;48.112;11.604;2022-09-28T08:10:35;92391.91;;;9.77;100.00
13314;BME280;6725;48.112;11.604;2022-09-28T08:13:02;92399.72;;;9.84;100.00
13314;BME280;6725;48.112;11.604;2022-09-28T08:15:30;92407.50;;;9.91;100.00
13314;BME280;6725;48.112;11.604;2022-09-28T08:17:58;92410.53;;;9.93;100.00
13314;BME280;6725;48.112;11.604;2022-09-28T08:20:23;92414.00;;;9.94;100.00
13314;BME280;6725;48.112;11.604;2022-09-28T08:23:08;92418.97;;;9.95;100.00
13314;BME280;6725;48.112;11.604;2022-09-28T08:25:35;92420.84;;;10.04;100.00
13314;BME280;6725;48.112;11.604;2022-09-28T08:28:04;92422.81;;;10.03;100.00
13314;BME280;6725;48.112;11.604;2022-09-28T08:30:31;92427.66;;;10.08;100.00
13314;BME280;6725;48.112;11.604;2022-09-28T08:32:57;92430.06;;;10.06;100.00
13314;BME280;6725;48.112;11.604;2022-09-28T08:35:22;92438.81;;;10.10;100.00
13314;BME280;6725;48.112;11.604;2022-09-28T08:37:51;92438.81;;;10.10;100.00
13314;BME280;6725;48.112;11.604;2022-09-28T08:40:23;92443.78;;;10.12;100.00
13314;BME280;6725;48.112;11.604;2022-09-28T08:42:54;92432.16;;;10.12;100.00
13314;BME280;6725;48.112;11.604;2022-09-28T08:45:26;92431.94;;;10.15;100.00
13314;BME280;6725;48.112;11.604;2022-09-28T08:48:20;92435.06;;;10.23;100.00
13314;BME280;6725;48.112;11.604;2022-09-28T08:51:21;92421.69;;;10.25;100.00
13314;BME280;6725;48.112;11.604;2022-09-28T08:54:02;92427.59;;;10.23;100.00
13314;BME280;6725;48.112;11.604;2022-09-28T08:56:49;92429.13;;;10.24;100.00
13314;BME280;6725;48.112;11.604;2022-09-28T08:59:20;92439.84;;;10.28;100.00
13314;BME280;6725;48.112;11.604;2022-09-28T09:01:54;92440.47;;;10.37;100.00
13314;BME280;6725;48.112;11.604;2022-09-28T09:04:21;92439.13;;;10.47;100.00
13314;BME280;6725;48.112;11.604;2022-09-28T09:10:21;92439.06;;;10.62;100.00
13314;BME280;6725;48.112;11.604;2022-09-28T09:18:13;92470.53;;;10.92;100.00
13314;BME280;6725;48.112;11.604;2022-09-28T09:20:55;92524.91;;;10.95;100.00
13314;BME280;6725;48.112;11.604;2022-09-28T09:23:36;92549.19;;;10.59;100.00
13314;BME280;6725;48.112;11.604;2022-09-28T09:26:20;92565.66;;;10.21;100.00
13314;BME280;6725;48.112;11.604;2022-09-28T09:31:53;92584.63;;;10.00;100.00
13314;BME280;6725;48.112;11.604;2022-09-28T09:35:16;92591.72;;;9.83;100.00
13314;BME280;6725;48.112;11.604;2022-09-28T09:51:19;92590.88;;;10.16;100.00
13314;BME280;6725;48.112;11.604;2022-09-28T09:53:57;92586.06;;;10.25;100.00
13314;BME280;6725;48.112;11.604;2022-09-28T09:56:43;92590.66;;;10.19;100.00
13314;BME280;6725;48.112;11.604;2022-09-28T09:59:14;92587.19;;;10.33;100.00
13314;BME280;6725;48.112;11.604;2022-09-28T10:01:43;92586.34;;;10.42;100.00
13314;BME280;6725;48.112;11.604;2022-09-28T10:04:34;92586.72;;;10.49;100.00
13314;BME280;6725;48.112;11.604;2022-09-28T10:07:07;92590.22;;;10.50;100.00
13314;BME280;6725;48.112;11.604;2022-09-28T10:09:44;92601.59;;;10.34;100.00
13314;BME280;6725;48.112;11.604;2022-09-28T10:12:20;92598.22;;;10.39;100.00
13314;BME280;6725;48.112;11.604;2022-09-28T10:14:46;92599.63;;;10.49;100.00
13314;BME280;6725;48.112;11.604;2022-09-28T10:17:14;92600.25;;;10.44;100.00
13314;BME280;6725;48.112;11.604;2022-09-28T10:19:43;92598.31;;;10.44;100.00
13314;BME280;6725;48.112;11.604;2022-09-28T10:22:14;92599.63;;;10.49;100.00
13314;BME280;6725;48.112;11.604;2022-09-28T10:24:43;92605.28;;;10.60;100.00
13314;BME280;6725;48.112;11.604;2022-09-28T10:27:18;92618.63;;;10.43;100.00
13314;BME280;6725;48.112;11.604;2022-09-28T10:30:01;92626.03;;;10.43;100.00
13314;BME280;6725;48.112;11.604;2022-09-28T10:32:36;92624.63;;;10.33;100.00
13314;BME280;6725;48.112;11.604;2022-09-28T10:37:58;92624.91;;;10.49;100.00
13314;BME280;6725;48.112;11.604;2022-09-28T10:40:28;92627.84;;;10.60;100.00
13314;BME280;6725;48.112;11.604;2022-09-28T10:43:05;92629.44;;;10.67;100.00
13314;BME280;6725;48.112;11.604;2022-09-28T10:45:36;92630.94;;;10.68;100.00
13314;BME280;6725;48.112;11.604;2022-09-28T10:48:14;92631.34;;;10.75;100.00
13314;BME280;6725;48.112;11.604;2022-09-28T10:50:41;92627.91;;;10.95;100.00
13314;BME280;6725;48.112;11.604;2022-09-28T10:53:25;92624.53;;;11.00;100.00
13314;BME280;6725;48.112;11.604;2022-09-28T10:56:01;92635.63;;;11.11;100.00
13314;BME280;6725;48.112;11.604;2022-09-28T10:58:32;92625.50;;;11.17;100.00
13314;BME280;6725;48.112;11.604;2022-09-28T11:01:03;92627.31;;;11.20;100.00
13314;BME280;6725;48.112;11.604;2022-09-28T11:03:31;92632.19;;;11.30;100.00
13314;BME280;6725;48.112;11.604;2022-09-28T11:06:00;92634.63;;;11.28;100.00
13314;BME280;6725;48.112;11.604;2022-09-28T11:08:29;92628.97;;;11.32;100.00
13314;BME280;6725;48.112;11.604;2022-09-28T11:11:25;92624.78;;;11.51;100.00
13314;BME280;6725;48.112;11.604;2022-09-28T11:14:35;92626.44;;;11.83;100.00
13314;BME280;6725;48.112;11.604;2022-09-28T11:17:23;92637.81;;;11.96;100.00
13314;BME280;6725;48.112;11.604;2022-09-28T11:19:50;92653.81;;;12.03;100.00
13314;BME280;6725;48.112;11.604;2022-09-28T11:22:37;92682.66;;;11.84;100.00
13314;BME280;6725;48.112;11.604;2022-09-28T11:25:13;92672.34;;;11.59;100.00
13314;BME280;6725;48.112;11.604;2022-09-28T11:32:48;92705.03;;;11.68;100.00
13314;BME280;6725;48.112;11.604;2022-09-28T11:35:47;92710.31;;;11.71;100.00
13314;BME280;6725;48.112;11.604;2022-09-28T11:38:43;92723.16;;;11.51;100.00
13314;BME280;6725;48.112;11.604;2022-09-28T11:41:34;92718.81;;;11.44;100.00
13314;BME280;6725;48.112;11.604;2022-09-28T11:49:40;92693.44;;;11.73;100.00
13314;BME280;6725;48.112;11.604;2022-09-28T11:52:29;92712.41;;;11.62;100.00
13314;BME280;6725;48.112;11.604;2022-09-28T11:55:15;92724.47;;;11.70;100.00
13314;BME280;6725;48.112;11.604;2022-09-28T11:57:45;92737.28;;;11.64;100.00
13314;BME280;6725;48.112;11.604;2022-09-28T12:00:19;92746.53;;;11.52;100.00
13314;BME280;6725;48.112;11.604;2022-09-28T12:05:23;92753.03;;;11.69;100.00
13314;BME280;6725;48.112;11.604;2022-09-28T12:08:11;92743.31;;;11.68;100.00
13314;BME280;6725;48.112;11.604;2022-09-28T12:10:43;92741.38;;;11.88;100.00
13314;BME280;6725;48.112;11.604;2022-09-28T12:13:16;92727.22;;;11.90;100.00
13314;BME280;6725;48.112;11.604;2022-09-28T12:18:37;92737.50;;;12.15;100.00
13314;BME280;6725;48.112;11.604;2022-09-28T12:23:32;92730.00;;;12.50;100.00
13314;BME280;6725;48.112;11.604;2022-09-28T12:26:02;92747.31;;;12.41;100.00
13314;BME280;6725;48.112;11.604;2022-09-28T12:28:45;92760.22;;;12.41;100.00
13314;BME280;6725;48.112;11.604;2022-09-28T12:31:33;92766.66;;;12.38;100.00
13314;BME280;6725;48.112;11.604;2022-09-28T12:34:01;92763.50;;;12.25;100.00
13314;BME280;6725;48.112;11.604;2022-09-28T12:36:53;92764.94;;;12.00;100.00
13314;BME280;6725;48.112;11.604;2022-09-28T12:55:18;92756.72;;;12.20;100.00
13314;BME280;6725;48.112;11.604;2022-09-28T12:57:55;92763.38;;;12.14;100.00
13314;BME280;6725;48.112;11.604;2022-09-28T13:00:25;92760.78;;;12.25;100.00
13314;BME280;6725;48.112;11.604;2022-09-28T13:05:50;92758.72;;;12.40;100.00
13314;BME280;6725;48.112;11.604;2022-09-28T13:16:59;92769.09;;;11.96;100.00
13314;BME280;6725;48.112;11.604;2022-09-28T13:19:35;92768.31;;;11.95;100.00
13314;BME280;6725;48.112;11.604;2022-09-28T13:24:38;92769.13;;;11.81;100.00
13314;BME280;6725;48.112;11.604;2022-09-28T13:27:19;92767.66;;;11.66;100.00
13314;BME280;6725;48.112;11.604;2022-09-28T13:29:47;92768.38;;;11.52;100.00
13314;BME280;6725;48.112;11.604;2022-09-28T13:32:14;92762.19;;;11.37;100.00
13314;BME280;6725;48.112;11.604;2022-09-28T13:34:42;92770.28;;;11.17;100.00
13314;BME280;6725;48.112;11.604;2022-09-28T13:39:56;92764.44;;;11.24;100.00
13314;BME280;6725;48.112;11.604;2022-09-28T13:58:52;92819.59;;;10.99;100.00
13314;BME280;6725;48.112;11.604;2022-09-28T14:01:27;92824.22;;;10.93;100.00
13314;BME280;6725;48.112;11.604;2022-09-28T14:04:10;92824.78;;;10.97;100.00
13314;BME280;6725;48.112;11.604;2022-09-28T14:06:36;92825.06;;;10.99;100.00
13314;BME280;6725;48.112;11.604;2022-09-28T14:14:30;92821.50;;;10.93;100.00
13314;BME280;6725;48.112;11.604;2022-09-28T14:19:44;92832.19;;;10.82;100.00
13314;BME280;6725;48.112;11.604;2022-09-28T14:33:24;92840.88;;;10.95;100.00
13314;BME280;6725;48.112;11.604;2022-09-28T14:38:23;92843.34;;;10.93;100.00
13314;BME280;6725;48.112;11.604;2022-09-28T14:41:30;92832.22;;;10.96;100.00
13314;BME280;6725;48.112;11.604;2022-09-28T14:44:05;92835.16;;;10.93;100.00
13314;BME280;6725;48.112;11.604;2022-09-28T14:46:53;92831.84;;;10.89;100.00
13314;BME280;6725;48.112;11.604;2022-09-28T14:52:02;92844.03;;;10.79;100.00
13314;BME280;6725;48.112;11.604;2022-09-28T14:54:37;92836.44;;;10.83;100.00
13314;BME280;6725;48.112;11.604;2022-09-28T14:59:39;92829.94;;;10.95;100.00
13314;BME280;6725;48.112;11.604;2022-09-28T15:02:11;92836.94;;;10.96;100.00
13314;BME280;6725;48.112;11.604;2022-09-28T15:04:45;92842.41;;;10.96;100.00
13314;BME280;6725;48.112;11.604;2022-09-28T15:07:23;92847.09;;;10.95;100.00
13314;BME280;6725;48.112;11.604;2022-09-28T15:09:51;92843.50;;;10.89;100.00
13314;BME280;6725;48.112;11.604;2022-09-28T15:12:20;92852.34;;;10.84;100.00
13314;BME280;6725;48.112;11.604;2022-09-28T15:14:57;92845.53;;;10.80;100.00
13314;BME280;6725;48.112;11.604;2022-09-28T15:17:27;92846.78;;;10.79;100.00
13314;BME280;6725;48.112;11.604;2022-09-28T15:22:53;92861.81;;;10.51;100.00
13314;BME280;6725;48.112;11.604;2022-09-28T15:25:30;92855.22;;;10.43;100.00
13314;BME280;6725;48.112;11.604;2022-09-28T15:28:01;92867.50;;;10.38;100.00
13314;BME280;6725;48.112;11.604;2022-09-28T15:30:37;92856.31;;;10.36;100.00
13314;BME280;6725;48.112;11.604;2022-09-28T15:33:03;92860.28;;;10.35;100.00
13314;BME280;6725;48.112;11.604;2022-09-28T15:38:19;92847.66;;;10.38;100.00
13314;BME280;6725;48.112;11.604;2022-09-28T15:40:47;92847.09;;;10.34;100.00
13314;BME280;6725;48.112;11.604;2022-09-28T15:43:27;92846.31;;;10.33;100.00
13314;BME280;6725;48.112;11.604;2022-09-28T15:46:04;92837.69;;;10.35;100.00
13314;BME280;6725;48.112;11.604;2022-09-28T15:51:18;92825.78;;;10.23;100.00
13314;BME280;6725;48.112;11.604;2022-09-28T15:53:57;92832.00;;;10.24;100.00
13314;BME280;6725;48.112;11.604;2022-09-28T15:56:24;92826.53;;;10.24;100.00
13314;BME280;6725;48.112;11.604;2022-09-28T15:59:17;92825.38;;;10.16;100.00
13314;BME280;6725;48.112;11.604;2022-09-28T16:01:47;92825.38;;;10.16;100.00
13314;BME280;6725;48.112;11.604;2022-09-28T16:04:33;92820.06;;;10.12;100.00
13314;BME280;6725;48.112;11.604;2022-09-28T16:12:19;92829.78;;;10.04;100.00
13314;BME280;6725;48.112;11.604;2022-09-28T16:14:50;92824.34;;;10.04;100.00
13314;BME280;6725;48.112;11.604;2022-09-28T16:17:32;92831.16;;;9.99;100.00